createdAt,value
2017-10-03T00:00:47.750Z,10.25
2017-10-03T00:01:58.021Z,10.24
2017-10-03T00:03:07.970Z,10.27
2017-10-03T00:04:18.239Z,10.21
2017-10-03T00:05:28.507Z,10.25
2017-10-03T00:06:38.785Z,10.24
2017-10-03T00:07:49.060Z,10.25
2017-10-03T00:08:59.325Z,10.23
2017-10-03T00:10:09.276Z,10.27
2017-10-03T00:11:19.541Z,10.25
2017-10-03T00:12:29.809Z,10.25
2017-10-03T00:13:39.775Z,10.27
2017-10-03T00:14:50.042Z,10.25
2017-10-03T00:15:59.995Z,10.25
2017-10-03T00:17:09.941Z,10.17
2017-10-03T00:18:20.218Z,10.15
2017-10-03T00:19:30.493Z,10.17
2017-10-03T00:20:40.762Z,10.12
2017-10-03T00:21:51.035Z,10.18
2017-10-03T00:23:00.986Z,10.09
2017-10-03T00:24:11.268Z,10.07
2017-10-03T00:25:21.218Z,10.03
2017-10-03T00:26:31.490Z,10.12
2017-10-03T00:27:41.764Z,10.06
2017-10-03T00:28:52.031Z,10.05
2017-10-03T00:30:02.297Z,10.05
2017-10-03T00:31:12.568Z,10
2017-10-03T00:32:22.509Z,9.95
2017-10-03T00:33:32.780Z,9.92
2017-10-03T00:34:42.730Z,9.97
2017-10-03T00:35:53.004Z,9.92
2017-10-03T00:37:03.270Z,9.95
2017-10-03T00:38:13.544Z,9.95
2017-10-03T00:39:23.817Z,9.92
2017-10-03T00:40:34.085Z,9.94
2017-10-03T00:41:44.040Z,10
2017-10-03T00:42:53.989Z,9.9
2017-10-03T00:44:03.616Z,9.94
2017-10-03T00:45:13.566Z,9.9
2017-10-03T00:46:23.847Z,10.09
2017-10-03T00:47:33.480Z,9.84
2017-10-03T00:48:43.755Z,9.92
2017-10-03T00:49:53.699Z,9.97
2017-10-03T00:51:03.326Z,9.82
2017-10-03T00:52:13.597Z,9.91
2017-10-03T00:53:23.540Z,9.92
2017-10-03T00:54:33.489Z,9.84
2017-10-03T00:55:43.440Z,9.97
2017-10-03T00:56:53.388Z,9.95
2017-10-03T00:58:03.335Z,9.91
2017-10-03T00:59:12.958Z,9.82
2017-10-03T01:00:23.230Z,9.88
2017-10-03T01:01:33.184Z,9.84
2017-10-03T01:02:43.137Z,9.92
2017-10-03T01:03:53.404Z,9.95
2017-10-03T01:05:03.673Z,9.9
2017-10-03T01:06:13.302Z,9.91
2017-10-03T01:07:23.569Z,9.9
2017-10-03T01:08:33.840Z,9.88
2017-10-03T01:09:44.118Z,9.9
2017-10-03T01:10:54.387Z,9.91
2017-10-03T01:12:04.651Z,9.87
2017-10-03T01:13:14.924Z,9.87
2017-10-03T01:14:25.189Z,9.9
2017-10-03T01:15:35.140Z,9.87
2017-10-03T01:16:45.413Z,9.92
2017-10-03T01:17:55.036Z,9.91
2017-10-03T01:19:04.673Z,9.99
2017-10-03T01:20:14.625Z,9.99
2017-10-03T01:21:24.913Z,10.03
2017-10-03T01:22:35.183Z,10.06
2017-10-03T01:23:45.128Z,9.97
2017-10-03T01:24:55.145Z,9.94
2017-10-03T01:26:05.094Z,9.97
2017-10-03T01:27:14.400Z,10
2017-10-03T01:28:24.032Z,10
2017-10-03T01:29:33.974Z,9.97
2017-10-03T01:30:43.932Z,9.95
2017-10-03T01:31:54.201Z,9.92
2017-10-03T01:33:04.153Z,10
2017-10-03T01:34:13.781Z,9.94
2017-10-03T01:35:23.730Z,9.92
2017-10-03T01:36:34.012Z,9.82
2017-10-03T01:37:43.963Z,9.92
2017-10-03T01:38:53.911Z,9.9
2017-10-03T01:40:04.198Z,9.85
2017-10-03T01:41:14.150Z,9.81
2017-10-03T01:42:24.097Z,9.84
2017-10-03T01:43:34.395Z,9.76
2017-10-03T01:44:44.664Z,9.82
2017-10-03T01:45:54.613Z,9.77
2017-10-03T01:47:04.885Z,9.77
2017-10-03T01:48:15.154Z,9.7
2017-10-03T01:49:25.115Z,9.66
2017-10-03T01:50:34.741Z,9.66
2017-10-03T01:51:45.013Z,9.64
2017-10-03T01:52:54.963Z,9.67
2017-10-03T01:54:04.915Z,9.64
2017-10-03T01:55:14.867Z,9.58
2017-10-03T01:56:24.816Z,9.56
2017-10-03T01:57:35.094Z,9.56
2017-10-03T01:58:45.377Z,9.54
2017-10-03T01:59:55.642Z,9.59
2017-10-03T02:01:05.917Z,9.56
2017-10-03T02:02:16.190Z,9.58
2017-10-03T02:03:26.134Z,9.49
2017-10-03T02:04:36.084Z,9.52
2017-10-03T02:05:46.366Z,9.47
2017-10-03T02:06:56.641Z,9.51
2017-10-03T02:08:06.590Z,9.54
2017-10-03T02:09:16.215Z,9.45
2017-10-03T02:10:26.487Z,9.44
2017-10-03T02:11:36.259Z,9.48
2017-10-03T02:12:46.529Z,9.47
2017-10-03T02:13:56.154Z,9.52
2017-10-03T02:15:06.111Z,9.55
2017-10-03T02:16:16.376Z,9.48
2017-10-03T02:17:26.645Z,9.51
2017-10-03T02:18:36.915Z,9.48
2017-10-03T02:19:47.187Z,9.52
2017-10-03T02:20:57.182Z,9.49
2017-10-03T02:22:07.135Z,9.58
2017-10-03T02:23:17.404Z,9.54
2017-10-03T02:24:27.675Z,9.48
2017-10-03T02:25:37.944Z,9.54
2017-10-03T02:26:47.895Z,9.48
2017-10-03T02:27:58.159Z,9.51
2017-10-03T02:29:08.432Z,9.52
2017-10-03T02:30:18.721Z,9.45
2017-10-03T02:31:29.001Z,9.52
2017-10-03T02:32:39.270Z,9.47
2017-10-03T02:33:49.541Z,9.51
2017-10-03T02:34:58.855Z,9.42
2017-10-03T02:36:09.139Z,9.4
2017-10-03T02:37:19.410Z,9.47
2017-10-03T02:38:29.356Z,9.42
2017-10-03T02:39:39.623Z,9.44
2017-10-03T02:40:49.263Z,9.42
2017-10-03T02:41:59.541Z,9.48
2017-10-03T02:43:09.491Z,9.47
2017-10-03T02:44:19.760Z,9.42
2017-10-03T02:45:30.045Z,9.44
2017-10-03T02:46:39.994Z,9.4
2017-10-03T02:47:50.265Z,9.37
2017-10-03T02:48:59.892Z,9.37
2017-10-03T02:50:09.201Z,9.27
2017-10-03T02:51:19.471Z,9.34
2017-10-03T02:52:29.753Z,9.24
2017-10-03T02:53:40.031Z,9.26
2017-10-03T02:54:50.312Z,9.24
2017-10-03T02:56:00.256Z,9.29
2017-10-03T02:57:10.531Z,9.12
2017-10-03T02:58:20.481Z,9.34
2017-10-03T02:59:30.429Z,9.34
2017-10-03T03:00:40.701Z,9.29
2017-10-03T03:01:50.663Z,9.29
2017-10-03T03:03:00.927Z,9.29
2017-10-03T03:04:11.191Z,9.13
2017-10-03T03:05:21.457Z,9.19
2017-10-03T03:06:31.731Z,9.15
2017-10-03T03:07:41.686Z,9.16
2017-10-03T03:08:51.632Z,9.16
2017-10-03T03:10:01.902Z,9.12
2017-10-03T03:11:11.849Z,9.11
2017-10-03T03:12:22.118Z,9.11
2017-10-03T03:13:32.086Z,9.08
2017-10-03T03:14:42.367Z,9.03
2017-10-03T03:15:51.989Z,8.99
2017-10-03T03:17:01.938Z,9.05
2017-10-03T03:18:11.894Z,8.99
2017-10-03T03:19:22.167Z,8.95
2017-10-03T03:20:32.433Z,9.08
2017-10-03T03:21:42.377Z,9.05
2017-10-03T03:22:52.656Z,9.08
2017-10-03T03:24:02.286Z,9.09
2017-10-03T03:25:12.559Z,9.09
2017-10-03T03:26:22.838Z,9.09
2017-10-03T03:27:33.106Z,9.05
2017-10-03T03:28:43.055Z,9.16
2017-10-03T03:29:53.000Z,9.19
2017-10-03T03:31:02.950Z,9.16
2017-10-03T03:32:12.254Z,9.19
2017-10-03T03:33:22.200Z,9.16
2017-10-03T03:34:32.505Z,9.09
2017-10-03T03:35:42.775Z,9.13
2017-10-03T03:36:53.042Z,9.15
2017-10-03T03:38:03.316Z,9.16
2017-10-03T03:39:12.621Z,9.13
2017-10-03T03:40:22.570Z,9.05
2017-10-03T03:41:32.518Z,9.08
2017-10-03T03:42:42.462Z,9.05
2017-10-03T03:43:52.738Z,8.9
2017-10-03T03:45:02.686Z,8.93
2017-10-03T03:46:12.961Z,8.77
2017-10-03T03:47:23.252Z,8.71
2017-10-03T03:48:33.522Z,8.78
2017-10-03T03:49:43.472Z,8.75
2017-10-03T03:50:53.419Z,8.66
2017-10-03T03:52:03.693Z,8.54
2017-10-03T03:53:13.961Z,8.6
2017-10-03T03:54:24.227Z,8.49
2017-10-03T03:55:34.493Z,8.57
2017-10-03T03:56:44.765Z,8.45
2017-10-03T03:57:54.391Z,8.44
2017-10-03T03:59:04.660Z,8.39
2017-10-03T04:00:14.284Z,8.44
2017-10-03T04:01:23.908Z,8.42
2017-10-03T04:02:33.536Z,8.35
2017-10-03T04:03:43.815Z,8.27
2017-10-03T04:04:53.762Z,8.31
2017-10-03T04:06:03.391Z,8.21
2017-10-03T04:07:13.340Z,8.21
2017-10-03T04:08:23.609Z,8.31
2017-10-03T04:09:33.879Z,8.21
2017-10-03T04:10:44.146Z,8.26
2017-10-03T04:11:54.415Z,8.21
2017-10-03T04:13:04.040Z,8.32
2017-10-03T04:14:14.308Z,8.27
2017-10-03T04:15:24.260Z,8.28
2017-10-03T04:16:34.533Z,8.28
2017-10-03T04:17:44.480Z,8.35
2017-10-03T04:18:54.100Z,8.45
2017-10-03T04:20:04.046Z,8.45
2017-10-03T04:21:14.317Z,8.42
2017-10-03T04:22:23.626Z,8.41
2017-10-03T04:23:33.918Z,8.57
2017-10-03T04:24:44.183Z,8.6
2017-10-03T04:25:54.128Z,8.54
2017-10-03T04:27:03.757Z,8.68
2017-10-03T04:28:13.381Z,8.66
2017-10-03T04:29:23.649Z,8.71
2017-10-03T04:30:33.600Z,8.74
2017-10-03T04:31:43.900Z,8.72
2017-10-03T04:32:53.845Z,8.69
2017-10-03T04:34:04.115Z,8.79
2017-10-03T04:35:13.740Z,8.66
2017-10-03T04:36:24.010Z,8.81
2017-10-03T04:37:33.952Z,8.74
2017-10-03T04:38:43.899Z,8.86
2017-10-03T04:39:54.167Z,8.81
2017-10-03T04:41:04.432Z,8.75
2017-10-03T04:42:14.709Z,8.77
2017-10-03T04:43:24.976Z,8.69
2017-10-03T04:44:35.252Z,8.72
2017-10-03T04:45:45.212Z,8.69
2017-10-03T04:46:55.157Z,8.72
2017-10-03T04:48:05.110Z,8.75
2017-10-03T04:49:15.374Z,8.84
2017-10-03T04:50:25.333Z,8.74
2017-10-03T04:51:35.643Z,8.69
2017-10-03T04:52:45.606Z,8.77
2017-10-03T04:53:55.557Z,8.74
2017-10-03T04:55:05.841Z,8.79
2017-10-03T04:56:15.793Z,8.82
2017-10-03T04:57:25.742Z,8.84
2017-10-03T04:58:36.011Z,8.95
2017-10-03T04:59:45.957Z,8.86
2017-10-03T05:00:55.584Z,8.96
2017-10-03T05:02:05.853Z,8.97
2017-10-03T05:03:15.799Z,8.82
2017-10-03T05:04:26.061Z,8.79
2017-10-03T05:05:36.326Z,8.92
2017-10-03T05:06:46.280Z,8.92
2017-10-03T05:07:56.234Z,8.86
2017-10-03T05:09:06.510Z,8.79
2017-10-03T05:10:16.138Z,8.74
2017-10-03T05:11:26.410Z,8.9
2017-10-03T05:12:36.357Z,8.87
2017-10-03T05:13:46.305Z,8.87
2017-10-03T05:14:55.929Z,8.78
2017-10-03T05:16:05.876Z,8.84
2017-10-03T05:17:16.154Z,8.86
2017-10-03T05:18:26.102Z,8.78
2017-10-03T05:19:35.729Z,8.74
2017-10-03T05:20:45.684Z,8.75
2017-10-03T05:21:55.957Z,8.78
2017-10-03T05:23:05.912Z,8.77
2017-10-03T05:24:16.186Z,8.72
2017-10-03T05:25:26.138Z,8.77
2017-10-03T05:26:36.085Z,8.75
2017-10-03T05:27:46.366Z,8.86
2017-10-03T05:28:56.323Z,8.77
2017-10-03T05:30:06.287Z,8.82
2017-10-03T05:31:16.564Z,8.74
2017-10-03T05:32:26.517Z,8.75
2017-10-03T05:33:36.469Z,8.78
2017-10-03T05:34:46.764Z,8.74
2017-10-03T05:35:57.041Z,8.82
2017-10-03T05:37:07.316Z,8.77
2017-10-03T05:38:17.595Z,8.79
2017-10-03T05:39:27.554Z,8.82
2017-10-03T05:40:37.824Z,8.95
2017-10-03T05:41:48.130Z,8.75
2017-10-03T05:42:58.076Z,8.84
2017-10-03T05:44:08.030Z,8.86
2017-10-03T05:45:18.300Z,8.9
2017-10-03T05:46:28.250Z,8.89
2017-10-03T05:47:38.221Z,8.97
2017-10-03T05:48:48.491Z,8.96
2017-10-03T05:49:57.802Z,8.93
2017-10-03T05:51:07.433Z,8.86
2017-10-03T05:52:17.707Z,8.87
2017-10-03T05:53:27.982Z,8.79
2017-10-03T05:54:37.930Z,8.9
2017-10-03T05:55:47.890Z,9.03
2017-10-03T05:56:57.839Z,8.97
2017-10-03T05:58:07.151Z,8.99
2017-10-03T05:59:17.107Z,9.08
2017-10-03T06:00:27.381Z,9
2017-10-03T06:01:37.655Z,9.19
2017-10-03T06:02:47.930Z,9.15
2017-10-03T06:03:58.199Z,9.26
2017-10-03T06:05:08.470Z,9.21
2017-10-03T06:06:18.736Z,9.31
2017-10-03T06:07:28.690Z,9.34
2017-10-03T06:08:38.641Z,9.47
2017-10-03T06:09:48.588Z,9.39
2017-10-03T06:10:58.540Z,9.44
2017-10-03T06:12:08.828Z,9.49
2017-10-03T06:13:19.101Z,9.52
2017-10-03T06:14:29.050Z,9.48
2017-10-03T06:15:39.318Z,9.52
2017-10-03T06:16:48.946Z,9.51
2017-10-03T06:17:59.219Z,9.58
2017-10-03T06:19:09.175Z,9.59
2017-10-03T06:20:18.805Z,9.55
2017-10-03T06:21:28.764Z,9.63
2017-10-03T06:22:39.059Z,9.56
2017-10-03T06:23:48.684Z,9.62
2017-10-03T06:24:59.049Z,9.7
2017-10-03T06:26:08.793Z,9.64
2017-10-03T06:27:18.421Z,9.66
2017-10-03T06:28:28.457Z,9.59
2017-10-03T06:29:38.905Z,9.64
2017-10-03T06:34:37.455Z,9.55
2017-10-03T06:35:47.727Z,9.56
2017-10-03T06:36:58.001Z,9.58
2017-10-03T06:38:07.946Z,9.55
2017-10-03T06:39:17.584Z,9.55
2017-10-03T06:40:27.542Z,9.56
2017-10-03T06:41:37.244Z,9.59
2017-10-03T06:42:47.325Z,9.58
2017-10-03T06:43:57.037Z,9.62
2017-10-03T06:45:06.758Z,9.55
2017-10-03T06:46:17.127Z,9.58
2017-10-03T06:47:27.497Z,9.64
2017-10-03T06:48:37.874Z,9.59
2017-10-03T06:49:47.601Z,9.58
2017-10-03T06:50:57.319Z,9.62
2017-10-03T06:52:07.370Z,9.55
2017-10-03T06:53:17.425Z,9.64
2017-10-03T06:54:27.798Z,9.63
2017-10-03T06:55:38.167Z,9.64
2017-10-03T06:56:48.546Z,9.66
2017-10-03T06:57:58.937Z,9.63
2017-10-03T06:59:08.665Z,9.67
2017-10-03T07:00:19.037Z,9.81
2017-10-03T07:01:28.756Z,9.82
2017-10-03T07:02:39.137Z,9.77
2017-10-03T07:03:49.520Z,9.85
2017-10-03T07:04:59.191Z,9.94
2017-10-03T07:06:09.150Z,9.91
2017-10-03T07:07:19.120Z,10.02
2017-10-03T07:08:29.390Z,10.12
2017-10-03T07:09:39.660Z,10.18
2017-10-03T07:10:49.614Z,10.15
2017-10-03T07:11:59.570Z,10.2
2017-10-03T07:13:09.517Z,10.28
2017-10-03T07:14:19.790Z,10.39
2017-10-03T07:15:30.058Z,10.38
2017-10-03T07:16:40.336Z,10.49
2017-10-03T07:17:50.285Z,10.46
2017-10-03T07:18:59.476Z,10.48
2017-10-03T07:20:09.452Z,10.55
2017-10-03T07:21:19.721Z,10.55
2017-10-03T07:22:29.990Z,10.59
2017-10-03T07:23:40.030Z,10.59
2017-10-03T07:24:50.404Z,10.59
2017-10-03T07:26:00.782Z,10.65
2017-10-03T07:27:10.825Z,10.69
2017-10-03T07:28:20.868Z,10.69
2017-10-03T07:29:31.265Z,10.82
2017-10-03T07:30:42.507Z,10.84
2017-10-03T07:31:52.939Z,10.86
2017-10-03T07:33:03.349Z,10.83
2017-10-03T07:34:13.783Z,10.92
2017-10-03T07:35:24.156Z,10.83
2017-10-03T07:36:34.204Z,10.92
2017-10-03T07:37:43.923Z,10.83
2017-10-03T07:38:53.984Z,10.92
2017-10-03T07:40:04.040Z,10.95
2017-10-03T07:41:14.086Z,10.94
2017-10-03T07:42:24.461Z,10.92
2017-10-03T07:43:34.514Z,10.9
2017-10-03T07:44:44.910Z,10.95
2017-10-03T07:45:54.669Z,10.95
2017-10-03T07:47:05.074Z,10.98
2017-10-03T07:48:15.128Z,11
2017-10-03T07:49:25.160Z,10.9
2017-10-03T07:50:35.585Z,10.92
2017-10-03T07:51:46.070Z,11.02
2017-10-03T07:52:55.877Z,11.08
2017-10-03T07:54:06.038Z,11.1
2017-10-03T07:55:15.840Z,11.08
2017-10-03T07:56:25.934Z,11.23
2017-10-03T07:57:36.305Z,11.26
2017-10-03T07:58:46.355Z,11.27
2017-10-03T07:59:56.454Z,11.3
2017-10-03T08:01:06.595Z,11.44
2017-10-03T08:02:16.053Z,11.43
2017-10-03T08:03:26.170Z,11.49
2017-10-03T08:04:36.632Z,11.45
2017-10-03T08:05:47.010Z,11.63
2017-10-03T08:06:57.056Z,11.58
2017-10-03T08:08:07.436Z,11.67
2017-10-03T08:09:16.830Z,11.63
2017-10-03T08:10:27.220Z,11.77
2017-10-03T08:11:37.273Z,11.74
2017-10-03T08:12:47.634Z,11.93
2017-10-03T08:13:58.019Z,11.89
2017-10-03T08:15:08.395Z,11.97
2017-10-03T08:16:18.478Z,11.99
2017-10-03T08:17:28.975Z,11.97
2017-10-03T08:18:38.783Z,11.96
2017-10-03T08:19:49.272Z,12.11
2017-10-03T08:20:59.749Z,12.2
2017-10-03T08:22:09.559Z,12.21
2017-10-03T08:23:19.697Z,12.14
2017-10-03T08:24:30.161Z,12.29
2017-10-03T08:25:40.645Z,12.36
2017-10-03T08:26:50.803Z,12.45
2017-10-03T08:28:00.944Z,12.47
2017-10-03T08:29:11.431Z,12.5
2017-10-03T08:30:21.904Z,12.65
2017-10-03T08:31:32.043Z,12.65
2017-10-03T08:32:42.188Z,12.68
2017-10-03T08:33:52.316Z,12.7
2017-10-03T08:35:02.461Z,12.72
2017-10-03T08:36:12.584Z,12.65
2017-10-03T08:37:23.057Z,12.87
2017-10-03T08:38:34.076Z,12.83
2017-10-03T08:39:44.172Z,12.88
2017-10-03T08:40:54.269Z,12.88
2017-10-03T08:42:04.373Z,12.87
2017-10-03T08:43:14.748Z,12.94
2017-10-03T08:44:25.121Z,12.93
2017-10-03T08:45:35.155Z,12.93
2017-10-03T08:46:45.528Z,12.99
2017-10-03T08:47:55.261Z,12.99
2017-10-03T08:49:05.644Z,12.93
2017-10-03T08:50:16.015Z,12.87
2017-10-03T08:51:26.074Z,12.81
2017-10-03T08:52:36.130Z,12.78
2017-10-03T08:53:46.505Z,12.68
2017-10-03T08:54:56.567Z,12.72
2017-10-03T08:56:06.945Z,12.58
2017-10-03T08:57:16.339Z,12.5
2017-10-03T08:58:26.721Z,12.48
2017-10-03T08:59:37.140Z,12.36
2017-10-03T09:00:47.551Z,12.39
2017-10-03T09:01:57.971Z,12.21
2017-10-03T09:03:08.340Z,12.32
2017-10-03T09:04:18.713Z,12.39
2017-10-03T09:05:28.757Z,12.35
2017-10-03T09:06:39.136Z,12.37
2017-10-03T09:07:49.562Z,12.37
2017-10-03T09:08:59.321Z,12.29
2017-10-03T09:10:09.375Z,12.28
2017-10-03T09:11:19.427Z,12.33
2017-10-03T09:12:29.140Z,12.28
2017-10-03T09:13:39.521Z,12.32
2017-10-03T09:14:49.568Z,12.23
2017-10-03T09:15:59.627Z,12.15
2017-10-03T09:17:09.671Z,12.25
2017-10-03T09:18:19.723Z,12.28
2017-10-03T09:19:29.773Z,12.29
2017-10-03T09:20:39.813Z,12.21
2017-10-03T09:21:49.864Z,12.11
2017-10-03T09:22:59.898Z,12.21
2017-10-03T09:24:10.283Z,12.03
2017-10-03T09:25:20.348Z,12.05
2017-10-03T09:26:30.757Z,11.96
2017-10-03T09:27:40.805Z,12.07
2017-10-03T09:28:50.524Z,11.95
2017-10-03T09:30:00.905Z,11.85
2017-10-03T09:31:11.285Z,11.91
2017-10-03T09:32:21.343Z,11.85
2017-10-03T09:33:31.706Z,11.89
2017-10-03T09:34:42.086Z,11.95
2017-10-03T09:35:52.120Z,11.96
2017-10-03T09:37:02.494Z,11.96
2017-10-03T09:38:12.823Z,12.12
2017-10-03T09:39:22.770Z,12.14
2017-10-03T09:40:33.040Z,12.17
2017-10-03T09:41:42.987Z,12.15
2017-10-03T09:42:52.944Z,12.26
2017-10-03T09:44:02.901Z,12.36
2017-10-03T09:45:12.853Z,12.44
2017-10-03T09:46:22.498Z,12.35
2017-10-03T09:47:32.127Z,12.4
2017-10-03T09:48:42.078Z,12.47
2017-10-03T09:49:52.352Z,12.48
2017-10-03T09:51:02.632Z,12.51
2017-10-03T09:52:12.905Z,12.47
2017-10-03T09:53:22.857Z,12.62
2017-10-03T09:54:32.489Z,12.61
2017-10-03T09:55:42.444Z,12.57
2017-10-03T09:56:52.072Z,12.66
2017-10-03T09:58:02.346Z,12.68
2017-10-03T09:59:12.301Z,12.68
2017-10-03T10:00:22.583Z,12.63
2017-10-03T10:01:32.536Z,12.81
2017-10-03T10:02:42.488Z,12.78
2017-10-03T10:03:52.791Z,12.8
2017-10-03T10:05:02.841Z,12.8
2017-10-03T10:06:12.806Z,12.8
2017-10-03T10:07:22.440Z,12.83
2017-10-03T10:08:32.068Z,12.88
2017-10-03T10:09:42.342Z,12.87
2017-10-03T10:10:52.300Z,12.94
2017-10-03T10:12:02.260Z,13.01
2017-10-03T10:13:12.531Z,13.03
2017-10-03T10:14:22.496Z,13.11
2017-10-03T10:15:32.795Z,13.16
2017-10-03T10:16:44.747Z,13.2
2017-10-03T10:17:54.702Z,13.17
2017-10-03T10:19:04.331Z,13.16
2017-10-03T10:20:14.286Z,13.23
2017-10-03T10:21:24.563Z,13.28
2017-10-03T10:22:34.841Z,13.33
2017-10-03T10:23:44.798Z,13.3
2017-10-03T10:24:55.084Z,13.28
2017-10-03T10:26:05.386Z,13.43
2017-10-03T10:27:15.029Z,13.28
2017-10-03T10:28:24.996Z,13.27
2017-10-03T10:29:34.948Z,13.33
2017-10-03T10:30:44.585Z,13.31
2017-10-03T10:31:53.572Z,13.36
2017-10-03T10:33:03.848Z,13.3
2017-10-03T10:34:14.126Z,13.4
2017-10-03T10:35:24.402Z,13.27
2017-10-03T10:36:34.683Z,13.24
2017-10-03T10:37:44.635Z,13.31
2017-10-03T10:38:54.910Z,13.39
2017-10-03T10:40:04.867Z,13.43
2017-10-03T10:41:14.598Z,13.36
2017-10-03T10:42:24.639Z,13.4
2017-10-03T10:43:34.601Z,13.36
2017-10-03T10:44:44.550Z,13.3
2017-10-03T10:45:53.536Z,13.36
2017-10-03T10:47:03.503Z,13.3
2017-10-03T10:48:13.137Z,13.42
2017-10-03T10:49:23.089Z,13.47
2017-10-03T10:50:33.364Z,13.49
2017-10-03T10:51:43.316Z,13.45
2017-10-03T10:52:53.272Z,13.43
2017-10-03T10:54:03.264Z,13.42
2017-10-03T10:55:13.215Z,13.36
2017-10-03T10:56:23.487Z,13.33
2017-10-03T10:57:33.766Z,13.36
2017-10-03T10:58:43.783Z,13.39
2017-10-03T10:59:53.557Z,13.4
2017-10-03T11:01:03.897Z,13.5
2017-10-03T11:02:13.850Z,13.61
2017-10-03T11:03:23.487Z,13.67
2017-10-03T11:04:33.442Z,13.8
2017-10-03T11:05:43.718Z,14.11
2017-10-03T11:06:53.669Z,14.38
2017-10-03T11:08:03.945Z,14.74
2017-10-03T11:09:14.224Z,15.23
2017-10-03T11:10:24.505Z,15.55
2017-10-03T11:11:34.785Z,15.85
2017-10-03T11:12:44.419Z,16.03
2017-10-03T11:13:54.696Z,16
2017-10-03T11:15:04.648Z,15.73
2017-10-03T11:16:14.941Z,15.72
2017-10-03T11:17:24.918Z,15.35
2017-10-03T11:18:34.892Z,15.32
2017-10-03T11:19:45.185Z,15.8
2017-10-03T11:20:57.889Z,16.21
2017-10-03T11:22:07.618Z,16.26
2017-10-03T11:23:16.929Z,16.41
2017-10-03T11:24:27.210Z,16.13
2017-10-03T11:25:37.161Z,16.41
2017-10-03T11:26:47.125Z,16.83
2017-10-03T11:27:57.080Z,17.23
2017-10-03T11:29:07.354Z,17.63
2017-10-03T11:30:17.319Z,17.8
2017-10-03T11:31:27.619Z,18.23
2017-10-03T11:32:37.578Z,18.71
2017-10-03T11:33:47.860Z,19.05
2017-10-03T11:34:58.150Z,19.45
2017-10-03T11:36:08.107Z,19.72
2017-10-03T11:37:18.066Z,20.19
2017-10-03T11:38:27.702Z,20.3
2017-10-03T11:39:37.983Z,20.5
2017-10-03T11:40:48.267Z,20.74
2017-10-03T11:41:58.235Z,21.11
2017-10-03T11:43:08.523Z,21.04
2017-10-03T11:44:18.804Z,21.03
2017-10-03T11:45:29.086Z,21.22
2017-10-03T11:46:38.735Z,21.54
2017-10-03T11:47:48.695Z,21.74
2017-10-03T11:48:58.675Z,21.72
2017-10-03T11:50:08.314Z,21.77
2017-10-03T11:51:18.280Z,21.62
2017-10-03T11:52:28.242Z,21.72
2017-10-03T11:53:38.525Z,22.1
2017-10-03T11:54:48.817Z,22.47
2017-10-03T11:55:58.462Z,22.43
2017-10-03T11:57:08.747Z,22.53
2017-10-03T11:58:18.713Z,21.96
2017-10-03T11:59:28.993Z,21.35
2017-10-03T12:00:39.290Z,20.9
2017-10-03T12:01:49.575Z,20.77
2017-10-03T12:02:59.540Z,20.85
2017-10-03T12:04:09.829Z,20.8
2017-10-03T12:05:19.786Z,20.63
2017-10-03T12:06:30.070Z,20.48
2017-10-03T12:07:40.381Z,20.26
2017-10-03T12:08:50.667Z,20.3
2017-10-03T12:10:00.308Z,19.81
2017-10-03T12:11:09.949Z,19.74
2017-10-03T12:12:20.240Z,19.32
2017-10-03T12:13:30.522Z,19.22
2017-10-03T12:14:40.800Z,18.98
2017-10-03T12:15:51.106Z,18.51
2017-10-03T12:17:01.084Z,18.03
2017-10-03T12:18:10.401Z,17.78
2017-10-03T12:19:20.677Z,17.3
2017-10-03T12:20:30.632Z,17.3
2017-10-03T12:21:40.957Z,17.01
2017-10-03T12:22:50.599Z,16.65
2017-10-03T12:24:00.247Z,16.55
2017-10-03T12:25:10.223Z,16.61
2017-10-03T12:26:20.520Z,16.69
2017-10-03T12:27:30.798Z,16.79
2017-10-03T12:28:40.759Z,17.23
2017-10-03T12:29:51.036Z,17.47
2017-10-03T12:31:00.991Z,17.78
2017-10-03T12:32:10.951Z,17.9
2017-10-03T12:33:21.229Z,18.12
2017-10-03T12:34:31.203Z,18.27
2017-10-03T12:35:41.489Z,18.28
2017-10-03T12:36:51.456Z,18.23
2017-10-03T12:38:01.416Z,18.09
2017-10-03T12:39:11.407Z,17.76
2017-10-03T12:40:21.684Z,17.54
2017-10-03T12:41:31.963Z,17.39
2017-10-03T12:42:41.919Z,17.35
2017-10-03T12:43:52.205Z,17.07
2017-10-03T12:45:02.161Z,16.8
2017-10-03T12:46:12.439Z,16.62
2017-10-03T12:47:22.719Z,16.41
2017-10-03T12:48:32.030Z,16.05
2017-10-03T12:49:42.309Z,15.91
2017-10-03T12:50:51.939Z,15.7
2017-10-03T12:52:01.913Z,15.66
2017-10-03T12:53:12.193Z,15.59
2017-10-03T12:54:22.482Z,15.32
2017-10-03T12:55:32.759Z,15.43
2017-10-03T12:56:42.720Z,15.43
2017-10-03T12:57:52.683Z,15.43
2017-10-03T12:59:02.634Z,15.3
2017-10-03T13:00:12.925Z,15.32
2017-10-03T13:01:23.203Z,15.22
2017-10-03T13:02:33.490Z,15.14
2017-10-03T13:03:43.771Z,15.07
2017-10-03T13:04:53.725Z,14.97
2017-10-03T13:06:04.019Z,14.97
2017-10-03T13:07:14.294Z,14.85
2017-10-03T13:08:24.580Z,14.94
2017-10-03T13:09:34.961Z,14.9
2017-10-03T13:10:44.920Z,14.89
2017-10-03T13:11:54.235Z,14.62
2017-10-03T13:13:04.517Z,14.62
2017-10-03T13:14:14.803Z,14.53
2017-10-03T13:15:25.076Z,14.48
2017-10-03T13:16:35.358Z,14.34
2017-10-03T13:17:45.634Z,14.33
2017-10-03T13:18:55.594Z,14.33
2017-10-03T13:20:05.223Z,14.28
2017-10-03T13:21:15.503Z,14.36
2017-10-03T13:22:25.459Z,14.43
2017-10-03T13:23:35.739Z,14.38
2017-10-03T13:24:46.010Z,14.43
2017-10-03T13:25:55.966Z,14.56
2017-10-03T13:27:05.918Z,14.73
2017-10-03T13:28:16.227Z,14.7
2017-10-03T13:29:26.497Z,14.74
2017-10-03T13:30:36.452Z,14.87
2017-10-03T13:31:46.734Z,14.82
2017-10-03T13:32:56.367Z,14.61
2017-10-03T13:34:06.639Z,14.49
2017-10-03T13:35:16.918Z,14.36
2017-10-03T13:36:26.227Z,14.38
2017-10-03T13:37:36.192Z,14.28
2017-10-03T13:38:46.199Z,14.18
2017-10-03T13:39:55.830Z,14.12
2017-10-03T13:41:05.787Z,14.11
2017-10-03T13:42:16.067Z,14.12
2017-10-03T13:43:26.031Z,14
2017-10-03T13:44:36.316Z,13.91
2017-10-03T13:45:46.271Z,14
2017-10-03T13:46:56.228Z,14.03
2017-10-03T13:48:06.178Z,14.08
2017-10-03T13:49:16.455Z,14.11
2017-10-03T13:50:26.081Z,14.28
2017-10-03T13:51:36.035Z,14.31
2017-10-03T13:52:45.985Z,14.43
2017-10-03T13:53:56.254Z,14.37
2017-10-03T13:55:06.546Z,14.53
2017-10-03T13:56:16.495Z,14.63
2017-10-03T13:57:26.450Z,14.63
2017-10-03T13:58:36.728Z,14.73
2017-10-03T13:59:47.002Z,14.71
2017-10-03T14:00:56.958Z,14.77
2017-10-03T14:02:07.234Z,14.79
2017-10-03T14:03:17.511Z,14.77
2017-10-03T14:04:27.465Z,14.73
2017-10-03T14:05:37.741Z,14.82
2017-10-03T14:06:47.701Z,14.68
2017-10-03T14:07:57.007Z,14.82
2017-10-03T14:09:06.959Z,14.59
2017-10-03T14:10:16.915Z,14.78
2017-10-03T14:11:26.897Z,14.74
2017-10-03T14:12:36.844Z,14.89
2017-10-03T14:13:47.117Z,14.87
2017-10-03T14:14:57.386Z,14.93
2017-10-03T14:16:07.027Z,14.99
2017-10-03T14:17:16.975Z,15.08
2017-10-03T14:18:27.254Z,15.12
2017-10-03T14:19:37.524Z,15.1
2017-10-03T14:20:47.814Z,15.08
2017-10-03T14:21:57.451Z,15.05
2017-10-03T14:23:07.732Z,15.14
2017-10-03T14:24:18.011Z,15.14
2017-10-03T14:25:28.295Z,15.1
2017-10-03T14:26:37.926Z,15.19
2017-10-03T14:27:48.206Z,15.08
2017-10-03T14:28:57.846Z,15.07
2017-10-03T14:30:07.478Z,15.07
2017-10-03T14:31:17.752Z,15.07
2017-10-03T14:32:27.707Z,15.08
2017-10-03T14:33:36.693Z,15.12
2017-10-03T14:34:46.646Z,15.23
2017-10-03T14:35:56.919Z,15.33
2017-10-03T14:37:06.550Z,15.51
2017-10-03T14:38:16.822Z,15.55
2017-10-03T14:39:26.773Z,15.7
2017-10-03T14:40:37.045Z,15.78
2017-10-03T14:41:47.001Z,15.87
2017-10-03T14:42:56.632Z,16.08
2017-10-03T14:44:06.904Z,16.06
2017-10-03T14:45:17.189Z,15.91
2017-10-03T14:46:27.141Z,15.78
2017-10-03T14:47:37.424Z,15.73
2017-10-03T14:48:47.700Z,15.67
2017-10-03T14:49:57.657Z,15.47
2017-10-03T14:51:07.938Z,15.27
2017-10-03T14:52:18.216Z,15.19
2017-10-03T14:53:28.493Z,15.12
2017-10-03T14:54:38.454Z,14.97
2017-10-03T14:55:48.406Z,14.85
2017-10-03T14:56:58.680Z,14.71
2017-10-03T14:58:08.953Z,14.58
2017-10-03T14:59:19.244Z,14.58
2017-10-03T15:00:29.216Z,14.38
2017-10-03T15:01:39.494Z,14.38
2017-10-03T15:02:49.848Z,14.2
2017-10-03T15:04:00.122Z,14.26
2017-10-03T15:05:10.404Z,14.08
2017-10-03T15:06:20.684Z,14.08
2017-10-03T15:07:30.644Z,13.95
2017-10-03T15:08:40.919Z,13.93
2017-10-03T15:09:51.188Z,13.85
2017-10-03T15:11:01.465Z,13.85
2017-10-03T15:12:11.754Z,13.86
2017-10-03T15:13:21.704Z,13.86
2017-10-03T15:14:31.658Z,13.85
2017-10-03T15:15:41.939Z,13.71
2017-10-03T15:16:52.221Z,13.75
2017-10-03T15:18:01.931Z,13.65
2017-10-03T15:19:12.475Z,13.71
2017-10-03T15:20:22.929Z,13.67
2017-10-03T15:21:33.384Z,13.47
2017-10-03T15:22:43.511Z,13.43